createdAt,value
2022-08-23T00:02:25.871Z,85563.28
2022-08-23T00:05:08.721Z,85565.88
2022-08-23T00:07:40.302Z,85573.69
2022-08-23T00:10:14.751Z,85588.25
2022-08-23T00:12:43.983Z,85589.75
2022-08-23T00:15:14.904Z,85527.38
2022-08-23T00:17:42.890Z,85585.13
2022-08-23T00:20:14.424Z,85584.31
2022-08-23T00:22:42.303Z,85567.09
2022-08-23T00:25:11.874Z,85576.59
2022-08-23T00:27:40.241Z,85581.66
2022-08-23T00:30:10.110Z,85610.44
2022-08-23T00:32:39.737Z,85620.56
2022-08-23T00:35:11.384Z,85602.66
2022-08-23T00:37:39.269Z,85556.56
2022-08-23T00:40:12.365Z,85642.41
2022-08-23T00:43:06.045Z,85644.72
2022-08-23T00:46:02.899Z,85615.81
2022-08-23T00:48:34.673Z,85667.97
2022-08-23T00:51:17.267Z,85617.28
2022-08-23T00:53:50.929Z,85670.81
2022-08-23T00:56:21.459Z,85684.25
2022-08-23T00:58:49.729Z,85673.25
2022-08-23T01:01:18.627Z,85632.34
2022-08-23T01:03:57.084Z,85641.66
2022-08-23T01:06:38.755Z,85698.31
2022-08-23T01:09:14.274Z,85690.38
2022-08-23T01:12:11.651Z,85699.47
2022-08-23T01:14:45.120Z,85702.25
2022-08-23T01:17:44.034Z,85704.75
2022-08-23T01:20:15.838Z,85711.56
2022-08-23T01:23:10.565Z,85676.19
2022-08-23T01:25:39.065Z,85693.84
2022-08-23T01:28:06.725Z,85704.03
2022-08-23T01:30:35.780Z,85693.03
2022-08-23T01:33:07.445Z,85647.88
2022-08-23T01:35:49.230Z,85695.13
2022-08-23T01:38:17.309Z,85675.81
2022-08-23T01:40:47.327Z,85675.50
2022-08-23T01:43:15.927Z,85670.59
2022-08-23T01:45:43.681Z,85663.22
2022-08-23T01:48:14.354Z,85632.00
2022-08-23T01:50:42.455Z,85676.75
2022-08-23T01:53:11.193Z,85645.97
2022-08-23T01:55:43.440Z,85664.44
2022-08-23T01:58:12.696Z,85652.03
2022-08-23T02:00:42.643Z,85672.44
2022-08-23T02:03:13.937Z,85666.78
2022-08-23T02:05:42.909Z,85655.88
2022-08-23T02:08:33.963Z,85625.75
2022-08-23T02:11:17.357Z,85656.06
2022-08-23T02:13:48.659Z,85634.28
2022-08-23T02:17:03.852Z,85672.09
2022-08-23T02:19:38.951Z,85645.44
2022-08-23T02:22:09.030Z,85653.41
2022-08-23T02:24:45.375Z,85670.88
2022-08-23T02:27:15.810Z,85682.06
2022-08-23T02:29:47.376Z,85682.59
2022-08-23T02:32:16.701Z,85688.06
2022-08-23T02:34:44.895Z,85651.72
2022-08-23T02:37:25.487Z,85665.47
2022-08-23T02:39:53.211Z,85684.25
2022-08-23T02:42:21.516Z,85686.28
2022-08-23T02:44:49.365Z,85680.84
2022-08-23T02:47:18.685Z,85657.78
2022-08-23T02:49:56.958Z,85663.22
2022-08-23T02:52:25.150Z,85654.00
2022-08-23T02:54:53.292Z,85662.81
2022-08-23T02:57:27.950Z,85689.59
2022-08-23T03:00:02.173Z,85623.88
2022-08-23T03:02:31.447Z,85628.00
2022-08-23T03:04:59.400Z,85649.53
2022-08-23T03:07:27.730Z,85686.56
2022-08-23T03:09:55.109Z,85643.25
2022-08-23T03:12:22.991Z,85685.50
2022-08-23T03:14:53.963Z,85695.31
2022-08-23T03:17:23.002Z,85686.47
2022-08-23T03:19:52.501Z,85696.66
2022-08-23T03:22:23.363Z,85666.59
2022-08-23T03:24:52.674Z,85702.25
2022-08-23T03:27:21.740Z,85706.34
2022-08-23T03:29:49.149Z,85687.34
2022-08-23T03:32:16.801Z,85711.25
2022-08-23T03:34:45.703Z,85709.66
2022-08-23T03:37:13.561Z,85694.38
2022-08-23T03:39:41.861Z,85721.44
2022-08-23T03:42:10.980Z,85698.31
2022-08-23T03:44:41.135Z,85683.19
2022-08-23T03:47:12.409Z,85718.72
2022-08-23T03:49:43.240Z,85728.84
2022-08-23T03:52:12.084Z,85732.91
2022-08-23T03:54:40.511Z,85708.34
2022-08-23T03:57:11.725Z,85723.66
2022-08-23T03:59:40.761Z,85694.94
2022-08-23T04:02:11.608Z,85720.88
2022-08-23T04:04:39.745Z,85726.25
2022-08-23T04:07:31.798Z,85731.69
2022-08-23T04:09:59.466Z,85698.69
2022-08-23T04:12:33.644Z,85708.41
2022-08-23T04:17:51.424Z,85706.13
2022-08-23T04:20:20.954Z,85731.56
2022-08-23T04:22:59.211Z,85711.13
2022-08-23T04:25:34.751Z,85695.91
2022-08-23T04:28:05.651Z,85702.75
2022-08-23T04:30:35.103Z,85711.63
2022-08-23T04:33:10.734Z,85724.47
2022-08-23T04:35:41.803Z,85710.03
2022-08-23T04:38:24.161Z,85728.59
2022-08-23T04:41:13.254Z,85713.53
2022-08-23T04:43:41.689Z,85744.16
2022-08-23T04:46:15.034Z,85681.19
2022-08-23T04:48:46.176Z,85740.94
2022-08-23T04:51:15.519Z,85717.72
2022-08-23T04:53:44.228Z,85747.63
2022-08-23T04:56:30.755Z,85749.06
2022-08-23T04:58:58.559Z,85728.59
2022-08-23T05:01:27.790Z,85696.22
2022-08-23T05:03:56.230Z,85725.53
2022-08-23T05:06:25.944Z,85721.03
2022-08-23T05:08:54.418Z,85755.66
2022-08-23T05:11:22.553Z,85749.78
2022-08-23T05:13:51.522Z,85717.94
2022-08-23T05:16:20.707Z,85740.41
2022-08-23T05:19:03.678Z,85704.22
2022-08-23T05:21:33.898Z,85666.50
2022-08-23T05:24:03.882Z,85710.53
2022-08-23T05:26:35.423Z,85717.97
2022-08-23T05:29:06.049Z,85736.69
2022-08-23T05:31:42.823Z,85701.53
2022-08-23T05:34:11.518Z,85744.84
2022-08-23T05:36:51.636Z,85743.25
2022-08-23T05:39:40.099Z,85714.41
2022-08-23T05:42:13.452Z,85706.75
2022-08-23T05:44:43.422Z,85738.56
2022-08-23T05:47:15.730Z,85737.81
2022-08-23T05:50:16.010Z,85730.22
2022-08-23T05:52:45.870Z,85730.09
2022-08-23T05:55:17.130Z,85723.13
2022-08-23T05:58:00.972Z,85720.09
2022-08-23T06:00:37.245Z,85640.31
2022-08-23T06:03:07.064Z,85726.56
2022-08-23T06:05:41.840Z,85716.31
2022-08-23T06:08:11.088Z,85708.66
2022-08-23T06:10:42.139Z,85712.66
2022-08-23T06:13:23.665Z,85734.56
2022-08-23T06:15:51.428Z,85734.41
2022-08-23T06:18:20.070Z,85705.09
2022-08-23T06:20:48.185Z,85739.59
2022-08-23T06:23:21.292Z,85726.09
2022-08-23T06:25:49.505Z,85710.09
2022-08-23T06:28:19.674Z,85763.13
2022-08-23T06:30:58.244Z,85726.16
2022-08-23T06:33:33.136Z,85714.63
2022-08-23T06:36:24.347Z,85739.94
2022-08-23T06:39:06.321Z,85774.84
2022-08-23T06:42:37.680Z,85781.13
2022-08-23T06:45:04.198Z,85787.25
2022-08-23T06:47:42.976Z,85768.97
2022-08-23T06:50:10.878Z,85799.81
2022-08-23T06:53:09.971Z,85784.66
2022-08-23T06:56:08.078Z,85782.44
2022-08-23T06:59:06.751Z,85795.22
2022-08-23T07:02:07.480Z,85816.47
2022-08-23T07:04:56.223Z,85769.47
2022-08-23T07:07:37.576Z,85788.41
2022-08-23T07:10:11.000Z,85825.31
2022-08-23T07:12:42.614Z,85822.41
2022-08-23T07:15:13.141Z,85814.94
2022-08-23T07:17:44.106Z,85826.50
2022-08-23T07:20:13.429Z,85827.88
2022-08-23T07:22:44.656Z,85828.03
2022-08-23T07:25:13.851Z,85809.66
2022-08-23T07:27:44.791Z,85846.81
2022-08-23T07:30:16.669Z,85834.22
2022-08-23T07:32:46.237Z,85847.16
2022-08-23T07:35:24.374Z,85852.84
2022-08-23T07:37:56.351Z,85846.13
2022-08-23T07:40:27.731Z,85854.69
2022-08-23T07:42:58.356Z,85838.28
2022-08-23T07:45:27.645Z,85849.25
2022-08-23T07:48:02.375Z,85837.00
2022-08-23T07:50:35.549Z,85861.59
2022-08-23T07:53:04.208Z,85843.72
2022-08-23T07:55:31.809Z,85828.59
2022-08-23T07:58:21.713Z,85841.88
2022-08-23T08:01:12.625Z,85852.69
2022-08-23T08:03:49.187Z,85813.06
2022-08-23T08:06:26.796Z,85845.38
2022-08-23T08:08:56.262Z,85861.59
2022-08-23T08:11:32.146Z,85854.25
2022-08-23T08:14:08.174Z,85850.47
2022-08-23T08:16:45.765Z,85833.47
2022-08-23T08:19:20.013Z,85856.66
2022-08-23T08:22:06.264Z,85864.88
2022-08-23T08:25:13.572Z,85845.53
2022-08-23T08:27:42.704Z,85832.78
2022-08-23T08:30:12.181Z,85838.75
2022-08-23T08:32:46.948Z,85832.19
2022-08-23T08:35:16.150Z,85842.88
2022-08-23T08:37:46.131Z,85774.16
2022-08-23T08:40:25.613Z,85745.34
2022-08-23T08:43:19.929Z,85820.97
2022-08-23T08:46:09.186Z,85851.38
2022-08-23T08:48:47.674Z,85846.63
2022-08-23T08:51:51.859Z,85842.03
2022-08-23T08:54:25.566Z,85823.41
2022-08-23T08:57:01.418Z,85850.84
2022-08-23T08:59:48.529Z,85805.81
2022-08-23T09:02:31.978Z,85849.88
2022-08-23T09:05:21.826Z,85862.03
2022-08-23T09:08:20.938Z,85862.34
2022-08-23T09:10:59.352Z,85859.28
2022-08-23T09:14:04.374Z,85852.75
2022-08-23T09:16:55.827Z,85853.44
2022-08-23T09:19:25.640Z,85850.53
2022-08-23T09:22:02.535Z,85854.03
2022-08-23T09:24:32.106Z,85847.25
2022-08-23T09:27:12.816Z,85868.81
2022-08-23T09:29:53.581Z,85858.75
2022-08-23T09:32:33.252Z,85851.00
2022-08-23T09:35:09.625Z,85859.81
2022-08-23T09:38:04.060Z,85863.72
2022-08-23T09:40:38.878Z,85839.81
2022-08-23T09:43:22.875Z,85858.09
2022-08-23T09:45:50.497Z,85856.41
2022-08-23T09:48:40.475Z,85844.03
2022-08-23T09:51:23.163Z,85806.59
2022-08-23T09:54:33.995Z,85867.00
2022-08-23T09:57:06.777Z,85828.59
2022-08-23T09:59:41.175Z,85843.81
2022-08-23T10:02:27.249Z,85863.97
2022-08-23T10:05:05.766Z,85860.09
2022-08-23T10:08:03.310Z,85829.47
2022-08-23T10:10:53.645Z,85866.09
2022-08-23T10:13:31.072Z,85871.63
2022-08-23T10:16:12.346Z,85874.06
2022-08-23T10:19:20.592Z,85879.38
2022-08-23T10:22:07.547Z,85821.19
2022-08-23T10:25:28.307Z,85874.06
2022-08-23T10:28:48.500Z,85878.69
2022-08-23T10:31:38.365Z,85869.28
2022-08-23T10:34:30.069Z,85841.06
2022-08-23T10:37:22.903Z,85877.31
2022-08-23T10:40:32.565Z,85875.34
2022-08-23T10:43:37.452Z,85878.44
2022-08-23T10:46:08.261Z,85859.53
2022-08-23T10:48:51.608Z,85869.66
2022-08-23T10:51:32.367Z,85857.28
2022-08-23T10:54:34.492Z,85824.53
2022-08-23T10:57:06.662Z,85788.16
2022-08-23T10:59:37.259Z,85811.28
2022-08-23T11:02:36.542Z,85877.72
2022-08-23T11:05:41.326Z,85836.91
2022-08-23T11:08:47.493Z,85784.69
2022-08-23T11:11:43.501Z,85868.47
2022-08-23T11:14:28.870Z,85754.88
2022-08-23T11:17:01.850Z,85731.84
2022-08-23T11:20:04.623Z,85835.16
2022-08-23T11:22:54.859Z,85868.63
2022-08-23T11:25:48.455Z,85868.66
2022-08-23T11:28:30.572Z,85858.72
2022-08-23T11:31:19.798Z,85851.41
2022-08-23T11:33:54.240Z,85802.06
2022-08-23T11:36:27.426Z,85797.34
2022-08-23T11:39:00.211Z,85841.84
2022-08-23T11:41:31.354Z,85838.91
2022-08-23T11:44:30.228Z,85837.31
2022-08-23T11:47:07.678Z,85770.47
2022-08-23T11:49:50.028Z,85832.44
2022-08-23T11:52:48.508Z,85819.78
2022-08-23T11:55:29.066Z,85780.31
2022-08-23T11:58:14.321Z,85808.84
2022-08-23T12:01:09.016Z,85812.38
2022-08-23T12:03:52.192Z,85808.88
2022-08-23T12:06:40.593Z,85808.50
2022-08-23T12:09:32.405Z,85801.84
2022-08-23T12:12:01.204Z,85807.69
2022-08-23T12:14:32.246Z,85805.56
2022-08-23T12:17:04.084Z,85814.03
2022-08-23T12:19:45.300Z,85811.66
2022-08-23T12:22:19.585Z,85804.53
2022-08-23T12:25:03.052Z,85800.13
2022-08-23T12:27:32.211Z,85810.94
2022-08-23T12:30:18.419Z,85798.88
2022-08-23T12:33:06.224Z,85825.28
2022-08-23T12:36:00.215Z,85826.63
2022-08-23T12:38:28.987Z,85828.31
2022-08-23T12:40:57.941Z,85804.16
2022-08-23T12:43:30.247Z,85825.41
2022-08-23T12:46:01.671Z,85830.84
2022-08-23T12:48:33.715Z,85788.53
2022-08-23T12:51:11.222Z,85764.03
2022-08-23T12:53:45.339Z,85811.50
2022-08-23T12:56:32.396Z,85823.81
2022-08-23T12:59:05.405Z,85770.41
2022-08-23T13:01:39.462Z,85809.66
2022-08-23T13:04:12.535Z,85801.06
2022-08-23T13:06:44.918Z,85772.41
2022-08-23T13:09:21.113Z,85839.84
2022-08-23T13:11:49.907Z,85843.03
2022-08-23T13:14:34.448Z,85843.16
2022-08-23T13:17:37.387Z,85843.72
2022-08-23T13:20:08.646Z,85842.34
2022-08-23T13:22:39.535Z,85835.75
2022-08-23T13:25:28.655Z,85826.91
2022-08-23T13:28:00.333Z,85835.34
2022-08-23T13:30:34.199Z,85832.97
2022-08-23T13:33:07.069Z,85840.75
2022-08-23T13:35:47.237Z,85842.22
2022-08-23T13:38:25.776Z,85837.00
2022-08-23T13:41:28.644Z,85819.91
2022-08-23T13:43:56.947Z,85786.97
2022-08-23T13:46:32.403Z,85837.25
2022-08-23T13:49:00.689Z,85837.47
2022-08-23T13:51:37.062Z,85836.00
2022-08-23T13:54:08.119Z,85842.09
2022-08-23T13:56:48.748Z,85834.66
2022-08-23T13:59:31.618Z,85830.59
2022-08-23T14:02:06.972Z,85831.22
2022-08-23T14:04:35.455Z,85825.00
2022-08-23T14:07:03.109Z,85823.19
2022-08-23T14:09:31.093Z,85795.78
2022-08-23T14:12:03.074Z,85810.53
2022-08-23T14:14:34.297Z,85819.34
2022-08-23T14:17:04.270Z,85806.28
2022-08-23T14:22:21.595Z,85809.91
2022-08-23T14:24:50.130Z,85814.28
2022-08-23T14:27:18.645Z,85789.59
2022-08-23T14:29:47.219Z,85783.06
2022-08-23T14:32:15.796Z,85796.34
2022-08-23T14:34:44.350Z,85784.41
2022-08-23T14:38:02.798Z,85811.03
2022-08-23T14:40:02.827Z,85786.25
2022-08-23T14:42:31.947Z,85792.09
2022-08-23T14:45:00.021Z,85797.06
2022-08-23T14:47:28.401Z,85821.28
2022-08-23T14:49:56.520Z,85793.88
2022-08-23T14:52:24.546Z,85771.00
2022-08-23T14:54:52.864Z,85777.22
2022-08-23T14:57:20.907Z,85805.25
2022-08-23T14:59:49.016Z,85817.91
2022-08-23T15:02:22.244Z,85810.34
2022-08-23T15:04:49.610Z,85801.22
2022-08-23T15:07:19.174Z,85791.50
2022-08-23T15:09:54.772Z,85783.16
2022-08-23T15:15:21.993Z,85775.81
2022-08-23T15:17:59.234Z,85826.16
2022-08-23T15:20:32.530Z,85789.59
2022-08-23T15:23:01.431Z,85849.63
2022-08-23T15:25:31.435Z,85843.66
2022-08-23T15:27:59.210Z,85816.81
2022-08-23T15:30:27.486Z,85813.75
2022-08-23T15:32:57.963Z,85814.09
2022-08-23T15:35:27.427Z,85818.69
2022-08-23T15:37:57.095Z,85824.25
2022-08-23T15:40:26.022Z,85823.25
2022-08-23T15:42:54.631Z,85823.16
2022-08-23T15:45:22.504Z,85854.41
2022-08-23T15:47:54.570Z,85777.03
2022-08-23T15:50:25.688Z,85764.84
2022-08-23T15:52:55.311Z,85833.09
2022-08-23T15:55:24.366Z,85839.31
2022-08-23T15:57:54.810Z,85803.00
2022-08-23T16:00:24.565Z,85767.47
2022-08-23T16:03:28.024Z,85814.63
2022-08-23T16:05:44.287Z,85818.00
2022-08-23T16:08:23.231Z,85821.94
2022-08-23T16:10:51.668Z,85828.50
2022-08-23T16:13:20.372Z,85822.28
2022-08-23T16:15:48.844Z,85829.63
2022-08-23T16:18:16.385Z,85721.66
2022-08-23T16:20:45.399Z,85821.16
2022-08-23T16:23:13.158Z,85835.72
2022-08-23T16:25:42.369Z,85838.22
2022-08-23T16:28:09.704Z,85830.41
2022-08-23T16:30:38.075Z,85821.84
2022-08-23T16:33:05.879Z,85832.31
2022-08-23T16:35:34.497Z,85797.56
2022-08-23T16:38:01.895Z,85829.50
2022-08-23T16:40:29.874Z,85854.22
2022-08-23T16:42:57.583Z,85799.88
2022-08-23T16:45:26.268Z,85867.41
2022-08-23T16:47:54.443Z,85871.59
2022-08-23T16:50:22.594Z,85858.91
2022-08-23T16:52:50.180Z,85880.81
2022-08-23T16:55:19.524Z,85878.75
2022-08-23T16:57:47.056Z,85890.72
2022-08-23T17:00:15.882Z,85909.47
2022-08-23T17:02:44.376Z,85884.00
2022-08-23T17:05:16.801Z,85880.03
2022-08-23T17:07:44.468Z,85908.53
2022-08-23T17:10:13.504Z,85908.97
2022-08-23T17:12:46.950Z,85903.28
2022-08-23T17:15:18.993Z,85907.28
2022-08-23T17:17:49.220Z,85928.97
2022-08-23T17:20:18.370Z,85899.63
2022-08-23T17:22:47.138Z,85938.22
2022-08-23T17:25:15.323Z,85925.03
2022-08-23T17:27:46.200Z,85939.09
2022-08-23T17:30:16.986Z,85932.72
2022-08-23T17:32:47.891Z,85914.69
2022-08-23T17:35:20.184Z,85917.38
2022-08-23T17:37:48.760Z,85909.75
2022-08-23T17:40:21.354Z,85912.59
2022-08-23T17:42:51.309Z,85935.88
2022-08-23T17:45:19.599Z,85909.50
2022-08-23T17:47:47.952Z,85934.44
2022-08-23T17:50:17.597Z,85909.97
2022-08-23T17:52:45.917Z,85937.47
2022-08-23T17:55:18.468Z,85943.56
2022-08-23T17:57:47.210Z,85932.22
2022-08-23T18:00:17.420Z,85942.81
2022-08-23T18:02:45.400Z,85915.13
2022-08-23T18:05:13.610Z,85934.72
2022-08-23T18:07:43.386Z,85943.75
2022-08-23T18:10:13.919Z,85930.16
2022-08-23T18:12:42.437Z,85856.81
2022-08-23T18:15:10.919Z,85937.44
2022-08-23T18:17:39.732Z,85916.06
2022-08-23T18:20:10.033Z,85917.94
2022-08-23T18:22:40.048Z,85922.09
2022-08-23T18:25:09.594Z,85925.41
2022-08-23T18:27:56.257Z,85904.81
2022-08-23T18:30:24.107Z,85922.03
2022-08-23T18:32:55.285Z,85918.13
2022-08-23T18:35:26.307Z,85899.38
2022-08-23T18:37:54.604Z,85907.63
2022-08-23T18:40:27.552Z,85896.59
2022-08-23T18:42:55.347Z,85848.25
2022-08-23T18:45:24.569Z,85925.97
2022-08-23T18:47:52.734Z,85908.91
2022-08-23T18:50:20.351Z,85896.38
2022-08-23T18:52:48.308Z,85847.66
2022-08-23T18:55:17.782Z,85841.06
2022-08-23T18:57:46.278Z,85882.94
2022-08-23T19:00:17.509Z,85861.47
2022-08-23T19:02:46.514Z,85869.66
2022-08-23T19:05:14.195Z,85878.59
2022-08-23T19:07:45.547Z,85914.16
2022-08-23T19:10:18.373Z,85896.50
2022-08-23T19:12:54.288Z,85876.31
2022-08-23T19:15:23.056Z,85888.81
2022-08-23T19:17:53.328Z,85862.22
2022-08-23T19:20:21.897Z,85883.91
2022-08-23T19:22:54.099Z,85896.97
2022-08-23T19:25:21.812Z,85895.50
2022-08-23T19:27:49.395Z,85941.91
2022-08-23T19:30:17.882Z,85906.34
2022-08-23T19:32:45.375Z,85908.31
2022-08-23T19:35:14.546Z,85908.88
2022-08-23T19:37:43.770Z,85891.31
2022-08-23T19:40:12.539Z,85939.16
2022-08-23T19:42:42.143Z,85911.28
2022-08-23T19:45:11.528Z,85936.81
2022-08-23T19:47:40.710Z,85935.81
2022-08-23T19:50:10.452Z,85919.66
2022-08-23T19:52:38.284Z,85932.94
2022-08-23T19:55:10.941Z,85972.72
2022-08-23T19:57:38.785Z,85930.28
2022-08-23T20:00:19.033Z,85916.28
2022-08-23T20:02:48.559Z,85855.59
2022-08-23T20:05:18.370Z,85904.94
2022-08-23T20:07:46.759Z,85947.69
2022-08-23T20:10:15.029Z,85926.19
2022-08-23T20:12:45.794Z,85938.63
2022-08-23T20:15:14.597Z,85956.41
2022-08-23T20:17:42.262Z,85948.44
2022-08-23T20:20:12.023Z,85945.81
2022-08-23T20:22:57.984Z,85919.94
2022-08-23T20:25:25.931Z,85906.53
2022-08-23T20:27:53.066Z,85905.72
2022-08-23T20:30:21.386Z,85898.88
2022-08-23T20:32:48.918Z,85936.72
2022-08-23T20:35:17.091Z,85947.97
2022-08-23T20:37:44.261Z,85948.44
2022-08-23T20:40:12.457Z,85921.94
2022-08-23T20:42:40.094Z,85956.38
2022-08-23T20:45:08.720Z,85968.88
2022-08-23T20:47:37.828Z,85962.09
2022-08-23T20:50:06.402Z,85959.88
2022-08-23T20:52:34.801Z,85947.97
2022-08-23T20:55:03.772Z,85956.47
2022-08-23T20:57:38.822Z,85966.19
2022-08-23T21:00:08.624Z,85959.22
2022-08-23T21:02:38.546Z,85959.28
2022-08-23T21:05:06.997Z,85980.81
2022-08-23T21:07:35.379Z,85959.63
2022-08-23T21:10:05.086Z,85971.56
2022-08-23T21:12:32.680Z,85993.44
2022-08-23T21:15:00.315Z,85989.25
2022-08-23T21:17:27.769Z,85987.13
2022-08-23T21:19:56.312Z,85982.19
2022-08-23T21:22:24.148Z,85982.13
2022-08-23T21:25:00.055Z,85930.13
2022-08-23T21:27:27.772Z,85947.91
2022-08-23T21:29:56.052Z,85972.91
2022-08-23T21:32:23.563Z,85968.63
2022-08-23T21:34:54.055Z,85922.72
2022-08-23T21:37:21.611Z,85949.84
2022-08-23T21:39:49.262Z,85930.88
2022-08-23T21:42:19.645Z,85936.94
2022-08-23T21:44:49.606Z,85953.44
2022-08-23T21:47:19.891Z,85940.31
2022-08-23T21:49:47.601Z,85943.88
2022-08-23T21:52:16.019Z,85919.72
2022-08-23T21:54:45.746Z,85930.53
2022-08-23T21:57:13.516Z,85938.97
2022-08-23T21:59:44.325Z,85901.31
2022-08-23T22:02:11.799Z,85886.72
2022-08-23T22:04:39.250Z,85912.34
2022-08-23T22:07:07.262Z,85885.13
2022-08-23T22:09:35.146Z,85916.16
2022-08-23T22:12:03.359Z,85846.00
2022-08-23T22:14:32.282Z,85778.09
2022-08-23T22:17:01.064Z,85907.66
2022-08-23T22:19:31.025Z,85821.78
2022-08-23T22:21:58.936Z,85902.88
2022-08-23T22:24:26.558Z,85824.28
2022-08-23T22:26:55.733Z,85908.50
2022-08-23T22:29:23.420Z,85901.44
2022-08-23T22:31:51.363Z,85903.25
2022-08-23T22:34:18.881Z,85908.41
2022-08-23T22:36:52.380Z,85873.22
2022-08-23T22:39:23.661Z,85910.53
2022-08-23T22:41:52.061Z,85904.06
2022-08-23T22:44:23.004Z,85845.56
2022-08-23T22:46:51.279Z,85906.97
2022-08-23T22:49:19.093Z,85905.59
2022-08-23T22:51:49.084Z,85890.75
2022-08-23T22:54:23.435Z,85906.97
2022-08-23T22:56:53.398Z,85879.91
2022-08-23T22:59:25.866Z,85912.78
2022-08-23T23:01:58.242Z,85859.88
2022-08-23T23:04:27.574Z,85877.03
2022-08-23T23:06:56.292Z,85838.03
2022-08-23T23:09:24.614Z,85919.72
2022-08-23T23:11:53.162Z,85919.66
2022-08-23T23:14:24.142Z,85898.72
2022-08-23T23:16:53.333Z,85897.94
2022-08-23T23:19:41.682Z,85910.47
2022-08-23T23:22:10.302Z,85918.47
2022-08-23T23:24:39.766Z,85907.84
2022-08-23T23:27:07.777Z,85916.66
2022-08-23T23:29:35.660Z,85918.88
2022-08-23T23:32:03.896Z,85908.41
2022-08-23T23:34:31.874Z,85909.59
2022-08-23T23:37:00.623Z,85881.03
2022-08-23T23:39:28.798Z,85906.81
2022-08-23T23:41:57.638Z,85897.00
2022-08-23T23:44:30.928Z,85899.28
2022-08-23T23:47:01.831Z,85900.31
2022-08-23T23:49:33.193Z,85901.25
2022-08-23T23:52:03.761Z,85903.91
2022-08-23T23:54:31.973Z,85879.56
2022-08-23T23:57:00.315Z,85879.41
2022-08-23T23:59:27.983Z,85895.25
